sensor_id;sensor_type;location;lat;lon;timestamp;P1;durP1;ratioP1;P2;durP2;ratioP2
14209;SDS011;7188;56.070;12.698;2023-12-04T00:01:16;7.33;;;5.60;;
14209;SDS011;7188;56.070;12.698;2023-12-04T00:03:42;6.27;;;4.73;;
14209;SDS011;7188;56.070;12.698;2023-12-04T00:06:09;6.43;;;5.43;;
14209;SDS011;7188;56.070;12.698;2023-12-04T00:08:35;4.30;;;3.90;;
14209;SDS011;7188;56.070;12.698;2023-12-04T00:11:01;5.43;;;4.30;;
14209;SDS011;7188;56.070;12.698;2023-12-04T00:13:28;6.33;;;4.43;;
14209;SDS011;7188;56.070;12.698;2023-12-04T00:15:54;5.40;;;4.90;;
14209;SDS011;7188;56.070;12.698;2023-12-04T00:18:19;5.30;;;4.80;;
14209;SDS011;7188;56.070;12.698;2023-12-04T00:20:45;6.30;;;4.87;;
14209;SDS011;7188;56.070;12.698;2023-12-04T00:23:10;4.17;;;3.63;;
14209;SDS011;7188;56.070;12.698;2023-12-04T00:25:36;5.30;;;4.27;;
14209;SDS011;7188;56.070;12.698;2023-12-04T00:28:01;5.30;;;3.97;;
14209;SDS011;7188;56.070;12.698;2023-12-04T00:30:27;6.43;;;5.10;;
14209;SDS011;7188;56.070;12.698;2023-12-04T00:32:52;4.57;;;4.00;;
14209;SDS011;7188;56.070;12.698;2023-12-04T00:35:18;4.77;;;4.20;;
14209;SDS011;7188;56.070;12.698;2023-12-04T00:37:43;5.00;;;4.47;;
14209;SDS011;7188;56.070;12.698;2023-12-04T00:40:09;5.00;;;4.50;;
14209;SDS011;7188;56.070;12.698;2023-12-04T00:42:35;5.73;;;4.10;;
14209;SDS011;7188;56.070;12.698;2023-12-04T00:45:01;4.67;;;4.23;;
14209;SDS011;7188;56.070;12.698;2023-12-04T00:47:27;5.63;;;4.70;;
14209;SDS011;7188;56.070;12.698;2023-12-04T00:49:53;5.67;;;4.50;;
14209;SDS011;7188;56.070;12.698;2023-12-04T00:52:19;5.10;;;4.57;;
14209;SDS011;7188;56.070;12.698;2023-12-04T00:55:03;4.53;;;3.97;;
14209;SDS011;7188;56.070;12.698;2023-12-04T00:57:29;4.80;;;3.50;;
14209;SDS011;7188;56.070;12.698;2023-12-04T00:59:54;4.93;;;4.27;;
14209;SDS011;7188;56.070;12.698;2023-12-04T01:02:20;4.33;;;3.60;;
14209;SDS011;7188;56.070;12.698;2023-12-04T01:04:45;4.83;;;4.30;;
14209;SDS011;7188;56.070;12.698;2023-12-04T01:07:11;4.97;;;4.30;;
14209;SDS011;7188;56.070;12.698;2023-12-04T01:09:37;4.23;;;3.83;;
14209;SDS011;7188;56.070;12.698;2023-12-04T01:12:02;5.00;;;4.50;;
14209;SDS011;7188;56.070;12.698;2023-12-04T01:14:29;4.33;;;3.93;;
14209;SDS011;7188;56.070;12.698;2023-12-04T01:16:55;6.33;;;4.57;;
14209;SDS011;7188;56.070;12.698;2023-12-04T01:19:20;4.63;;;4.10;;
14209;SDS011;7188;56.070;12.698;2023-12-04T01:21:46;5.00;;;4.50;;
14209;SDS011;7188;56.070;12.698;2023-12-04T01:24:11;5.93;;;4.30;;
14209;SDS011;7188;56.070;12.698;2023-12-04T01:26:39;5.50;;;4.80;;
14209;SDS011;7188;56.070;12.698;2023-12-04T01:29:05;4.77;;;4.27;;
14209;SDS011;7188;56.070;12.698;2023-12-04T01:31:30;6.20;;;4.80;;
14209;SDS011;7188;56.070;12.698;2023-12-04T01:33:56;6.00;;;5.27;;
14209;SDS011;7188;56.070;12.698;2023-12-04T01:36:21;6.90;;;5.13;;
14209;SDS011;7188;56.070;12.698;2023-12-04T01:38:47;7.43;;;5.73;;
14209;SDS011;7188;56.070;12.698;2023-12-04T01:41:12;5.67;;;4.83;;
14209;SDS011;7188;56.070;12.698;2023-12-04T01:43:38;5.50;;;4.93;;
14209;SDS011;7188;56.070;12.698;2023-12-04T01:46:04;7.53;;;5.80;;
14209;SDS011;7188;56.070;12.698;2023-12-04T01:48:30;5.90;;;5.27;;
14209;SDS011;7188;56.070;12.698;2023-12-04T01:50:56;5.83;;;5.23;;
14209;SDS011;7188;56.070;12.698;2023-12-04T01:53:25;5.77;;;4.97;;
14209;SDS011;7188;56.070;12.698;2023-12-04T01:55:50;7.23;;;5.87;;
14209;SDS011;7188;56.070;12.698;2023-12-04T01:58:16;6.10;;;5.00;;
14209;SDS011;7188;56.070;12.698;2023-12-04T02:00:42;9.73;;;5.43;;
14209;SDS011;7188;56.070;12.698;2023-12-04T02:03:08;6.97;;;6.17;;
14209;SDS011;7188;56.070;12.698;2023-12-04T02:05:34;6.13;;;5.13;;
14209;SDS011;7188;56.070;12.698;2023-12-04T02:08:00;6.67;;;5.57;;
14209;SDS011;7188;56.070;12.698;2023-12-04T02:10:27;8.60;;;5.97;;
14209;SDS011;7188;56.070;12.698;2023-12-04T02:12:53;7.07;;;5.63;;
14209;SDS011;7188;56.070;12.698;2023-12-04T02:15:18;8.37;;;6.47;;
14209;SDS011;7188;56.070;12.698;2023-12-04T02:17:44;6.70;;;5.73;;
14209;SDS011;7188;56.070;12.698;2023-12-04T02:20:12;6.60;;;5.70;;
14209;SDS011;7188;56.070;12.698;2023-12-04T02:22:38;8.20;;;6.53;;
14209;SDS011;7188;56.070;12.698;2023-12-04T02:25:04;8.30;;;6.30;;
14209;SDS011;7188;56.070;12.698;2023-12-04T02:27:37;6.43;;;5.53;;
14209;SDS011;7188;56.070;12.698;2023-12-04T02:30:10;8.80;;;6.53;;
14209;SDS011;7188;56.070;12.698;2023-12-04T02:32:38;8.47;;;5.87;;
14209;SDS011;7188;56.070;12.698;2023-12-04T02:35:16;7.47;;;5.63;;
14209;SDS011;7188;56.070;12.698;2023-12-04T02:37:46;11.30;;;7.40;;
14209;SDS011;7188;56.070;12.698;2023-12-04T02:40:12;7.37;;;5.60;;
14209;SDS011;7188;56.070;12.698;2023-12-04T02:42:38;6.70;;;5.93;;
14209;SDS011;7188;56.070;12.698;2023-12-04T02:45:04;6.97;;;5.77;;
14209;SDS011;7188;56.070;12.698;2023-12-04T02:47:30;8.57;;;6.90;;
14209;SDS011;7188;56.070;12.698;2023-12-04T02:49:56;8.70;;;6.13;;
14209;SDS011;7188;56.070;12.698;2023-12-04T02:52:22;7.90;;;6.27;;
14209;SDS011;7188;56.070;12.698;2023-12-04T02:54:47;8.73;;;6.37;;
14209;SDS011;7188;56.070;12.698;2023-12-04T02:57:13;8.97;;;6.90;;
14209;SDS011;7188;56.070;12.698;2023-12-04T02:59:38;8.13;;;6.53;;
14209;SDS011;7188;56.070;12.698;2023-12-04T03:02:04;8.13;;;6.47;;
14209;SDS011;7188;56.070;12.698;2023-12-04T03:04:30;6.43;;;5.50;;
14209;SDS011;7188;56.070;12.698;2023-12-04T03:06:56;10.27;;;7.67;;
14209;SDS011;7188;56.070;12.698;2023-12-04T03:09:21;9.90;;;7.23;;
14209;SDS011;7188;56.070;12.698;2023-12-04T03:11:47;7.20;;;6.17;;
14209;SDS011;7188;56.070;12.698;2023-12-04T03:14:13;7.80;;;6.17;;
14209;SDS011;7188;56.070;12.698;2023-12-04T03:16:39;6.70;;;6.00;;
14209;SDS011;7188;56.070;12.698;2023-12-04T03:19:05;8.13;;;7.20;;
14209;SDS011;7188;56.070;12.698;2023-12-04T03:21:30;10.50;;;6.73;;
14209;SDS011;7188;56.070;12.698;2023-12-04T03:26:50;10.20;;;7.47;;
14209;SDS011;7188;56.070;12.698;2023-12-04T03:29:15;10.20;;;7.10;;
14209;SDS011;7188;56.070;12.698;2023-12-04T03:31:41;7.83;;;6.33;;
14209;SDS011;7188;56.070;12.698;2023-12-04T03:34:06;12.43;;;7.33;;
14209;SDS011;7188;56.070;12.698;2023-12-04T03:36:32;7.73;;;6.37;;
14209;SDS011;7188;56.070;12.698;2023-12-04T03:38:57;9.30;;;7.43;;
14209;SDS011;7188;56.070;12.698;2023-12-04T03:41:23;9.70;;;7.10;;
14209;SDS011;7188;56.070;12.698;2023-12-04T03:43:49;9.00;;;6.47;;
14209;SDS011;7188;56.070;12.698;2023-12-04T03:46:14;7.77;;;6.20;;
14209;SDS011;7188;56.070;12.698;2023-12-04T03:48:40;9.67;;;6.80;;
14209;SDS011;7188;56.070;12.698;2023-12-04T03:51:05;7.77;;;6.67;;
14209;SDS011;7188;56.070;12.698;2023-12-04T03:53:31;5.63;;;4.93;;
14209;SDS011;7188;56.070;12.698;2023-12-04T03:56:00;11.93;;;8.57;;
14209;SDS011;7188;56.070;12.698;2023-12-04T03:58:26;9.20;;;7.30;;
14209;SDS011;7188;56.070;12.698;2023-12-04T04:00:51;10.47;;;6.83;;
14209;SDS011;7188;56.070;12.698;2023-12-04T04:03:17;8.77;;;6.87;;
14209;SDS011;7188;56.070;12.698;2023-12-04T04:05:42;6.77;;;5.93;;
14209;SDS011;7188;56.070;12.698;2023-12-04T04:08:08;10.87;;;8.10;;
14209;SDS011;7188;56.070;12.698;2023-12-04T04:10:34;9.87;;;7.23;;
14209;SDS011;7188;56.070;12.698;2023-12-04T04:12:59;8.70;;;7.03;;
14209;SDS011;7188;56.070;12.698;2023-12-04T04:15:28;10.30;;;7.67;;
14209;SDS011;7188;56.070;12.698;2023-12-04T04:17:53;8.63;;;6.57;;
14209;SDS011;7188;56.070;12.698;2023-12-04T04:20:19;10.23;;;7.37;;
14209;SDS011;7188;56.070;12.698;2023-12-04T04:22:47;9.10;;;7.23;;
14209;SDS011;7188;56.070;12.698;2023-12-04T04:25:13;9.33;;;6.97;;
14209;SDS011;7188;56.070;12.698;2023-12-04T04:27:39;10.97;;;7.80;;
14209;SDS011;7188;56.070;12.698;2023-12-04T04:30:04;12.67;;;8.27;;
14209;SDS011;7188;56.070;12.698;2023-12-04T04:32:30;10.33;;;7.67;;
14209;SDS011;7188;56.070;12.698;2023-12-04T04:34:56;10.93;;;8.27;;
14209;SDS011;7188;56.070;12.698;2023-12-04T04:37:22;13.40;;;9.37;;
14209;SDS011;7188;56.070;12.698;2023-12-04T04:39:47;14.80;;;8.93;;
14209;SDS011;7188;56.070;12.698;2023-12-04T04:42:13;12.63;;;8.80;;
14209;SDS011;7188;56.070;12.698;2023-12-04T04:44:39;12.20;;;7.37;;
14209;SDS011;7188;56.070;12.698;2023-12-04T04:47:05;13.67;;;8.77;;
14209;SDS011;7188;56.070;12.698;2023-12-04T04:49:30;13.17;;;8.43;;
14209;SDS011;7188;56.070;12.698;2023-12-04T04:51:56;11.80;;;8.50;;
14209;SDS011;7188;56.070;12.698;2023-12-04T04:57:44;13.50;;;8.90;;
14209;SDS011;7188;56.070;12.698;2023-12-04T05:00:09;11.00;;;8.80;;
14209;SDS011;7188;56.070;12.698;2023-12-04T05:02:36;15.13;;;10.77;;
14209;SDS011;7188;56.070;12.698;2023-12-04T05:05:02;14.50;;;10.33;;
14209;SDS011;7188;56.070;12.698;2023-12-04T05:07:29;13.50;;;10.30;;
14209;SDS011;7188;56.070;12.698;2023-12-04T05:09:54;14.70;;;10.93;;
14209;SDS011;7188;56.070;12.698;2023-12-04T05:12:20;14.63;;;9.47;;
14209;SDS011;7188;56.070;12.698;2023-12-04T05:14:46;15.07;;;10.70;;
14209;SDS011;7188;56.070;12.698;2023-12-04T05:17:11;13.90;;;9.43;;
14209;SDS011;7188;56.070;12.698;2023-12-04T05:19:37;18.30;;;11.27;;
14209;SDS011;7188;56.070;12.698;2023-12-04T05:22:02;17.60;;;11.53;;
14209;SDS011;7188;56.070;12.698;2023-12-04T05:24:28;24.77;;;11.63;;
14209;SDS011;7188;56.070;12.698;2023-12-04T05:26:54;17.00;;;11.97;;
14209;SDS011;7188;56.070;12.698;2023-12-04T05:29:19;17.03;;;10.00;;
14209;SDS011;7188;56.070;12.698;2023-12-04T05:31:45;21.67;;;12.30;;
14209;SDS011;7188;56.070;12.698;2023-12-04T05:34:11;23.70;;;13.77;;
14209;SDS011;7188;56.070;12.698;2023-12-04T05:36:37;20.57;;;10.40;;
14209;SDS011;7188;56.070;12.698;2023-12-04T05:39:03;18.80;;;12.67;;
14209;SDS011;7188;56.070;12.698;2023-12-04T05:41:29;21.23;;;12.87;;
14209;SDS011;7188;56.070;12.698;2023-12-04T05:43:55;17.57;;;10.83;;
14209;SDS011;7188;56.070;12.698;2023-12-04T05:46:20;18.57;;;11.67;;
14209;SDS011;7188;56.070;12.698;2023-12-04T05:48:46;18.67;;;11.77;;
14209;SDS011;7188;56.070;12.698;2023-12-04T05:51:12;21.87;;;11.50;;
14209;SDS011;7188;56.070;12.698;2023-12-04T05:53:38;21.77;;;13.60;;
14209;SDS011;7188;56.070;12.698;2023-12-04T05:56:04;19.87;;;13.23;;
14209;SDS011;7188;56.070;12.698;2023-12-04T05:58:31;20.07;;;12.23;;
14209;SDS011;7188;56.070;12.698;2023-12-04T06:00:57;21.70;;;13.20;;
14209;SDS011;7188;56.070;12.698;2023-12-04T06:03:22;21.97;;;12.53;;
14209;SDS011;7188;56.070;12.698;2023-12-04T06:05:48;22.13;;;12.27;;
14209;SDS011;7188;56.070;12.698;2023-12-04T06:08:13;22.43;;;14.27;;
14209;SDS011;7188;56.070;12.698;2023-12-04T06:10:39;22.90;;;13.93;;
14209;SDS011;7188;56.070;12.698;2023-12-04T06:13:05;22.30;;;13.87;;
14209;SDS011;7188;56.070;12.698;2023-12-04T06:15:31;17.47;;;10.93;;
14209;SDS011;7188;56.070;12.698;2023-12-04T06:17:56;21.30;;;13.10;;
14209;SDS011;7188;56.070;12.698;2023-12-04T06:20:22;26.27;;;15.53;;
14209;SDS011;7188;56.070;12.698;2023-12-04T06:22:48;31.07;;;16.13;;
14209;SDS011;7188;56.070;12.698;2023-12-04T06:25:14;20.53;;;13.47;;
14209;SDS011;7188;56.070;12.698;2023-12-04T06:27:40;19.33;;;12.57;;
14209;SDS011;7188;56.070;12.698;2023-12-04T06:30:06;19.23;;;12.47;;
14209;SDS011;7188;56.070;12.698;2023-12-04T06:32:32;18.37;;;12.23;;
14209;SDS011;7188;56.070;12.698;2023-12-04T06:34:58;18.93;;;12.00;;
14209;SDS011;7188;56.070;12.698;2023-12-04T06:37:24;22.10;;;12.97;;
14209;SDS011;7188;56.070;12.698;2023-12-04T06:39:50;20.60;;;12.73;;
14209;SDS011;7188;56.070;12.698;2023-12-04T06:42:18;19.67;;;13.13;;
14209;SDS011;7188;56.070;12.698;2023-12-04T06:44:44;18.77;;;12.17;;
14209;SDS011;7188;56.070;12.698;2023-12-04T06:47:10;15.13;;;10.57;;
14209;SDS011;7188;56.070;12.698;2023-12-04T06:49:37;19.67;;;13.33;;
14209;SDS011;7188;56.070;12.698;2023-12-04T06:52:03;19.80;;;13.23;;
14209;SDS011;7188;56.070;12.698;2023-12-04T06:54:29;20.77;;;14.03;;
14209;SDS011;7188;56.070;12.698;2023-12-04T06:56:55;20.07;;;13.93;;
14209;SDS011;7188;56.070;12.698;2023-12-04T06:59:21;18.93;;;12.90;;
14209;SDS011;7188;56.070;12.698;2023-12-04T07:01:46;19.53;;;13.73;;
14209;SDS011;7188;56.070;12.698;2023-12-04T07:04:12;17.93;;;11.47;;
14209;SDS011;7188;56.070;12.698;2023-12-04T07:06:39;16.43;;;11.00;;
14209;SDS011;7188;56.070;12.698;2023-12-04T07:09:04;19.70;;;11.97;;
14209;SDS011;7188;56.070;12.698;2023-12-04T07:11:33;18.50;;;12.03;;
14209;SDS011;7188;56.070;12.698;2023-12-04T07:13:59;21.50;;;11.43;;
14209;SDS011;7188;56.070;12.698;2023-12-04T07:16:24;15.00;;;10.80;;
14209;SDS011;7188;56.070;12.698;2023-12-04T07:18:50;19.33;;;11.63;;
14209;SDS011;7188;56.070;12.698;2023-12-04T07:21:15;14.40;;;10.67;;
14209;SDS011;7188;56.070;12.698;2023-12-04T07:23:41;16.00;;;11.37;;
14209;SDS011;7188;56.070;12.698;2023-12-04T07:26:07;19.83;;;13.80;;
14209;SDS011;7188;56.070;12.698;2023-12-04T07:28:33;17.90;;;10.43;;
14209;SDS011;7188;56.070;12.698;2023-12-04T07:30:59;15.40;;;11.93;;
14209;SDS011;7188;56.070;12.698;2023-12-04T07:33:42;14.87;;;11.17;;
14209;SDS011;7188;56.070;12.698;2023-12-04T07:36:07;16.43;;;10.33;;
14209;SDS011;7188;56.070;12.698;2023-12-04T07:38:33;17.50;;;11.30;;
14209;SDS011;7188;56.070;12.698;2023-12-04T07:40:59;18.40;;;11.90;;
14209;SDS011;7188;56.070;12.698;2023-12-04T07:43:24;16.17;;;10.90;;
14209;SDS011;7188;56.070;12.698;2023-12-04T07:45:50;16.80;;;10.27;;
14209;SDS011;7188;56.070;12.698;2023-12-04T07:48:15;17.87;;;12.40;;
14209;SDS011;7188;56.070;12.698;2023-12-04T07:50:41;21.00;;;12.13;;
14209;SDS011;7188;56.070;12.698;2023-12-04T07:53:07;16.47;;;10.57;;
14209;SDS011;7188;56.070;12.698;2023-12-04T07:55:34;17.87;;;10.73;;
14209;SDS011;7188;56.070;12.698;2023-12-04T07:58:00;19.03;;;11.67;;
14209;SDS011;7188;56.070;12.698;2023-12-04T08:00:26;14.07;;;9.50;;
14209;SDS011;7188;56.070;12.698;2023-12-04T08:02:51;18.53;;;12.33;;
14209;SDS011;7188;56.070;12.698;2023-12-04T08:05:19;19.10;;;11.63;;
14209;SDS011;7188;56.070;12.698;2023-12-04T08:07:45;19.97;;;12.57;;
14209;SDS011;7188;56.070;12.698;2023-12-04T08:10:11;18.37;;;12.93;;
14209;SDS011;7188;56.070;12.698;2023-12-04T08:12:36;17.83;;;11.60;;
14209;SDS011;7188;56.070;12.698;2023-12-04T08:15:02;19.40;;;13.03;;
14209;SDS011;7188;56.070;12.698;2023-12-04T08:17:29;20.63;;;13.50;;
14209;SDS011;7188;56.070;12.698;2023-12-04T08:19:55;22.57;;;12.90;;
14209;SDS011;7188;56.070;12.698;2023-12-04T08:22:20;21.93;;;13.30;;
14209;SDS011;7188;56.070;12.698;2023-12-04T08:24:46;21.23;;;12.00;;
14209;SDS011;7188;56.070;12.698;2023-12-04T08:27:12;19.10;;;12.77;;
14209;SDS011;7188;56.070;12.698;2023-12-04T08:29:50;17.60;;;11.50;;
14209;SDS011;7188;56.070;12.698;2023-12-04T08:32:15;20.77;;;13.80;;
14209;SDS011;7188;56.070;12.698;2023-12-04T08:34:41;19.63;;;13.70;;
14209;SDS011;7188;56.070;12.698;2023-12-04T08:37:06;19.47;;;12.80;;
14209;SDS011;7188;56.070;12.698;2023-12-04T08:39:32;18.27;;;12.50;;
14209;SDS011;7188;56.070;12.698;2023-12-04T08:41:58;19.23;;;13.90;;
14209;SDS011;7188;56.070;12.698;2023-12-04T08:44:24;20.87;;;14.07;;
14209;SDS011;7188;56.070;12.698;2023-12-04T08:46:49;21.83;;;15.37;;
14209;SDS011;7188;56.070;12.698;2023-12-04T08:49:15;22.87;;;13.50;;
14209;SDS011;7188;56.070;12.698;2023-12-04T08:51:41;20.33;;;13.27;;
14209;SDS011;7188;56.070;12.698;2023-12-04T08:54:06;22.30;;;13.60;;
14209;SDS011;7188;56.070;12.698;2023-12-04T08:56:32;17.73;;;12.47;;
14209;SDS011;7188;56.070;12.698;2023-12-04T08:58:58;18.60;;;13.47;;
14209;SDS011;7188;56.070;12.698;2023-12-04T09:01:23;18.83;;;13.63;;
14209;SDS011;7188;56.070;12.698;2023-12-04T09:03:49;18.33;;;11.90;;
14209;SDS011;7188;56.070;12.698;2023-12-04T09:06:15;21.50;;;14.37;;
14209;SDS011;7188;56.070;12.698;2023-12-04T09:08:40;19.57;;;12.53;;
14209;SDS011;7188;56.070;12.698;2023-12-04T09:11:06;20.40;;;12.90;;
14209;SDS011;7188;56.070;12.698;2023-12-04T09:13:32;17.77;;;12.03;;
14209;SDS011;7188;56.070;12.698;2023-12-04T09:15:59;18.13;;;12.97;;
14209;SDS011;7188;56.070;12.698;2023-12-04T09:18:30;19.67;;;13.50;;
14209;SDS011;7188;56.070;12.698;2023-12-04T09:20:56;18.70;;;12.87;;
14209;SDS011;7188;56.070;12.698;2023-12-04T09:23:21;17.33;;;12.33;;
14209;SDS011;7188;56.070;12.698;2023-12-04T09:25:47;18.73;;;12.30;;
14209;SDS011;7188;56.070;12.698;2023-12-04T09:28:13;20.03;;;11.97;;
14209;SDS011;7188;56.070;12.698;2023-12-04T09:30:38;17.23;;;13.03;;
14209;SDS011;7188;56.070;12.698;2023-12-04T09:33:04;16.07;;;11.80;;
14209;SDS011;7188;56.070;12.698;2023-12-04T09:35:31;15.27;;;10.57;;
14209;SDS011;7188;56.070;12.698;2023-12-04T09:37:56;16.70;;;11.37;;
14209;SDS011;7188;56.070;12.698;2023-12-04T09:40:23;18.33;;;12.53;;
14209;SDS011;7188;56.070;12.698;2023-12-04T09:42:48;15.97;;;10.80;;
14209;SDS011;7188;56.070;12.698;2023-12-04T09:45:14;16.03;;;12.23;;
14209;SDS011;7188;56.070;12.698;2023-12-04T09:47:41;16.67;;;13.07;;
14209;SDS011;7188;56.070;12.698;2023-12-04T09:50:07;16.43;;;12.33;;
14209;SDS011;7188;56.070;12.698;2023-12-04T09:52:34;17.10;;;12.20;;
14209;SDS011;7188;56.070;12.698;2023-12-04T09:55:00;17.87;;;12.20;;
14209;SDS011;7188;56.070;12.698;2023-12-04T09:57:26;16.03;;;12.43;;
14209;SDS011;7188;56.070;12.698;2023-12-04T09:59:52;17.60;;;12.77;;
14209;SDS011;7188;56.070;12.698;2023-12-04T10:02:18;16.33;;;12.67;;
14209;SDS011;7188;56.070;12.698;2023-12-04T10:04:45;19.07;;;12.20;;
14209;SDS011;7188;56.070;12.698;2023-12-04T10:07:11;16.93;;;11.70;;
14209;SDS011;7188;56.070;12.698;2023-12-04T10:09:37;18.93;;;13.10;;
14209;SDS011;7188;56.070;12.698;2023-12-04T10:12:03;17.87;;;13.10;;
14209;SDS011;7188;56.070;12.698;2023-12-04T10:14:30;17.43;;;12.23;;
14209;SDS011;7188;56.070;12.698;2023-12-04T10:16:56;18.80;;;13.07;;
14209;SDS011;7188;56.070;12.698;2023-12-04T10:19:28;19.37;;;12.83;;
14209;SDS011;7188;56.070;12.698;2023-12-04T10:21:55;16.67;;;11.27;;
14209;SDS011;7188;56.070;12.698;2023-12-04T10:27:02;16.80;;;13.00;;
14209;SDS011;7188;56.070;12.698;2023-12-04T10:32:32;15.37;;;11.33;;
14209;SDS011;7188;56.070;12.698;2023-12-04T10:35:02;18.37;;;11.20;;
14209;SDS011;7188;56.070;12.698;2023-12-04T10:37:28;15.60;;;11.90;;
14209;SDS011;7188;56.070;12.698;2023-12-04T10:39:54;17.20;;;12.07;;
14209;SDS011;7188;56.070;12.698;2023-12-04T10:42:27;17.93;;;13.87;;
14209;SDS011;7188;56.070;12.698;2023-12-04T10:44:57;14.83;;;11.53;;
14209;SDS011;7188;56.070;12.698;2023-12-04T10:47:23;16.47;;;12.27;;
14209;SDS011;7188;56.070;12.698;2023-12-04T10:49:49;16.07;;;11.53;;
14209;SDS011;7188;56.070;12.698;2023-12-04T10:52:16;16.83;;;12.80;;
14209;SDS011;7188;56.070;12.698;2023-12-04T10:54:44;17.07;;;12.63;;
14209;SDS011;7188;56.070;12.698;2023-12-04T10:57:13;13.53;;;10.63;;
14209;SDS011;7188;56.070;12.698;2023-12-04T10:59:51;14.80;;;12.00;;
14209;SDS011;7188;56.070;12.698;2023-12-04T11:02:22;15.87;;;11.93;;
14209;SDS011;7188;56.070;12.698;2023-12-04T11:04:52;15.87;;;11.17;;
14209;SDS011;7188;56.070;12.698;2023-12-04T11:07:23;16.33;;;12.20;;
14209;SDS011;7188;56.070;12.698;2023-12-04T11:09:50;15.33;;;11.30;;
14209;SDS011;7188;56.070;12.698;2023-12-04T11:12:17;13.40;;;10.40;;
14209;SDS011;7188;56.070;12.698;2023-12-04T11:14:47;17.40;;;11.90;;
14209;SDS011;7188;56.070;12.698;2023-12-04T11:17:16;16.83;;;11.87;;
14209;SDS011;7188;56.070;12.698;2023-12-04T11:22:14;18.40;;;11.73;;
14209;SDS011;7188;56.070;12.698;2023-12-04T11:24:45;16.77;;;12.10;;
14209;SDS011;7188;56.070;12.698;2023-12-04T11:27:14;17.60;;;11.93;;
14209;SDS011;7188;56.070;12.698;2023-12-04T11:29:41;16.93;;;12.33;;
14209;SDS011;7188;56.070;12.698;2023-12-04T11:32:07;17.10;;;12.27;;
14209;SDS011;7188;56.070;12.698;2023-12-04T11:34:37;16.70;;;11.67;;
14209;SDS011;7188;56.070;12.698;2023-12-04T11:37:13;17.93;;;12.33;;
14209;SDS011;7188;56.070;12.698;2023-12-04T11:39:38;17.27;;;11.80;;
14209;SDS011;7188;56.070;12.698;2023-12-04T11:42:07;17.43;;;12.20;;
14209;SDS011;7188;56.070;12.698;2023-12-04T11:44:34;16.03;;;11.63;;
14209;SDS011;7188;56.070;12.698;2023-12-04T11:47:04;17.80;;;13.10;;
14209;SDS011;7188;56.070;12.698;2023-12-04T11:49:31;20.27;;;12.83;;
14209;SDS011;7188;56.070;12.698;2023-12-04T11:52:00;17.37;;;11.90;;
14209;SDS011;7188;56.070;12.698;2023-12-04T11:54:33;18.73;;;12.33;;
14209;SDS011;7188;56.070;12.698;2023-12-04T11:57:25;16.07;;;11.17;;
14209;SDS011;7188;56.070;12.698;2023-12-04T12:00:03;18.53;;;13.50;;
14209;SDS011;7188;56.070;12.698;2023-12-04T12:02:33;16.73;;;11.70;;
14209;SDS011;7188;56.070;12.698;2023-12-04T12:04:58;17.87;;;11.77;;
14209;SDS011;7188;56.070;12.698;2023-12-04T12:07:24;19.77;;;12.70;;
14209;SDS011;7188;56.070;12.698;2023-12-04T12:09:49;21.00;;;12.43;;
14209;SDS011;7188;56.070;12.698;2023-12-04T12:12:15;18.67;;;12.27;;
14209;SDS011;7188;56.070;12.698;2023-12-04T12:14:41;16.77;;;11.73;;
14209;SDS011;7188;56.070;12.698;2023-12-04T12:17:06;17.20;;;12.33;;
14209;SDS011;7188;56.070;12.698;2023-12-04T12:19:32;15.03;;;9.10;;
14209;SDS011;7188;56.070;12.698;2023-12-04T12:21:58;15.67;;;11.33;;
14209;SDS011;7188;56.070;12.698;2023-12-04T12:24:24;14.00;;;10.77;;
14209;SDS011;7188;56.070;12.698;2023-12-04T12:26:51;15.90;;;11.37;;
14209;SDS011;7188;56.070;12.698;2023-12-04T12:29:17;14.70;;;11.80;;
14209;SDS011;7188;56.070;12.698;2023-12-04T12:31:43;14.60;;;11.03;;
14209;SDS011;7188;56.070;12.698;2023-12-04T12:34:08;14.63;;;11.50;;
14209;SDS011;7188;56.070;12.698;2023-12-04T12:36:34;16.07;;;11.30;;
14209;SDS011;7188;56.070;12.698;2023-12-04T12:39:00;15.80;;;11.80;;
14209;SDS011;7188;56.070;12.698;2023-12-04T12:41:28;20.23;;;11.70;;
14209;SDS011;7188;56.070;12.698;2023-12-04T12:43:54;15.93;;;11.33;;
14209;SDS011;7188;56.070;12.698;2023-12-04T12:46:21;16.00;;;11.70;;
14209;SDS011;7188;56.070;12.698;2023-12-04T12:48:47;16.97;;;11.63;;
14209;SDS011;7188;56.070;12.698;2023-12-04T12:51:13;17.97;;;11.67;;
14209;SDS011;7188;56.070;12.698;2023-12-04T12:53:39;16.50;;;11.50;;
14209;SDS011;7188;56.070;12.698;2023-12-04T12:56:04;19.13;;;12.53;;
14209;SDS011;7188;56.070;12.698;2023-12-04T12:58:31;19.10;;;12.67;;
14209;SDS011;7188;56.070;12.698;2023-12-04T13:00:56;21.07;;;13.20;;
14209;SDS011;7188;56.070;12.698;2023-12-04T13:03:22;16.87;;;12.10;;
14209;SDS011;7188;56.070;12.698;2023-12-04T13:05:48;18.90;;;11.67;;
14209;SDS011;7188;56.070;12.698;2023-12-04T13:08:13;19.03;;;12.23;;
14209;SDS011;7188;56.070;12.698;2023-12-04T13:10:40;16.03;;;11.83;;
14209;SDS011;7188;56.070;12.698;2023-12-04T13:13:13;17.67;;;11.90;;
14209;SDS011;7188;56.070;12.698;2023-12-04T13:15:39;19.90;;;12.70;;
14209;SDS011;7188;56.070;12.698;2023-12-04T13:18:06;15.17;;;10.90;;
14209;SDS011;7188;56.070;12.698;2023-12-04T13:20:32;18.20;;;12.43;;
14209;SDS011;7188;56.070;12.698;2023-12-04T13:22:59;16.30;;;10.87;;
14209;SDS011;7188;56.070;12.698;2023-12-04T13:25:25;15.93;;;11.10;;
14209;SDS011;7188;56.070;12.698;2023-12-04T13:27:51;19.03;;;11.60;;
14209;SDS011;7188;56.070;12.698;2023-12-04T13:30:16;14.70;;;10.87;;
14209;SDS011;7188;56.070;12.698;2023-12-04T13:32:42;16.10;;;11.87;;
14209;SDS011;7188;56.070;12.698;2023-12-04T13:35:09;14.80;;;10.40;;
14209;SDS011;7188;56.070;12.698;2023-12-04T13:37:36;16.37;;;11.10;;
14209;SDS011;7188;56.070;12.698;2023-12-04T13:40:03;16.10;;;11.77;;
14209;SDS011;7188;56.070;12.698;2023-12-04T13:42:34;16.73;;;11.17;;
14209;SDS011;7188;56.070;12.698;2023-12-04T13:45:43;15.73;;;10.50;;
14209;SDS011;7188;56.070;12.698;2023-12-04T13:48:09;15.90;;;10.60;;
14209;SDS011;7188;56.070;12.698;2023-12-04T13:50:36;18.40;;;11.17;;
14209;SDS011;7188;56.070;12.698;2023-12-04T13:53:02;15.63;;;11.97;;
14209;SDS011;7188;56.070;12.698;2023-12-04T13:55:35;17.10;;;11.73;;
14209;SDS011;7188;56.070;12.698;2023-12-04T13:58:06;15.67;;;10.80;;
14209;SDS011;7188;56.070;12.698;2023-12-04T14:00:50;17.23;;;11.03;;
14209;SDS011;7188;56.070;12.698;2023-12-04T14:03:16;15.53;;;10.07;;
14209;SDS011;7188;56.070;12.698;2023-12-04T14:05:42;16.07;;;11.80;;
14209;SDS011;7188;56.070;12.698;2023-12-04T14:08:08;19.97;;;11.93;;
14209;SDS011;7188;56.070;12.698;2023-12-04T14:10:36;18.60;;;11.17;;
14209;SDS011;7188;56.070;12.698;2023-12-04T14:13:01;16.63;;;11.77;;
14209;SDS011;7188;56.070;12.698;2023-12-04T14:15:27;14.77;;;10.53;;
14209;SDS011;7188;56.070;12.698;2023-12-04T14:17:52;16.50;;;11.20;;
14209;SDS011;7188;56.070;12.698;2023-12-04T14:20:18;16.10;;;10.13;;
14209;SDS011;7188;56.070;12.698;2023-12-04T14:22:46;17.60;;;11.07;;
14209;SDS011;7188;56.070;12.698;2023-12-04T14:25:12;14.17;;;9.87;;
14209;SDS011;7188;56.070;12.698;2023-12-04T14:27:37;16.30;;;10.93;;
14209;SDS011;7188;56.070;12.698;2023-12-04T14:32:53;15.77;;;10.63;;
14209;SDS011;7188;56.070;12.698;2023-12-04T14:35:19;14.43;;;9.80;;
14209;SDS011;7188;56.070;12.698;2023-12-04T14:37:45;13.67;;;9.83;;
14209;SDS011;7188;56.070;12.698;2023-12-04T14:40:12;14.47;;;10.10;;
14209;SDS011;7188;56.070;12.698;2023-12-04T14:42:42;17.00;;;10.87;;
14209;SDS011;7188;56.070;12.698;2023-12-04T14:45:08;15.53;;;10.20;;